createdAt,value
2023-03-17T00:00:53.957Z,6.75
2023-03-17T00:03:26.893Z,5.70
2023-03-17T00:05:57.346Z,8.55
2023-03-17T00:08:30.328Z,8.27
2023-03-17T00:11:03.143Z,8.02
2023-03-17T00:13:33.360Z,7.38
2023-03-17T00:16:04.871Z,7.50
2023-03-17T00:18:35.560Z,8.35
2023-03-17T00:21:05.673Z,5.95
2023-03-17T00:23:35.859Z,8.38
2023-03-17T00:26:08.678Z,6.70
2023-03-17T00:28:38.707Z,6.60
2023-03-17T00:31:16.756Z,6.55
2023-03-17T00:33:48.230Z,5.75
2023-03-17T00:36:21.332Z,6.28
2023-03-17T00:38:51.150Z,6.65
2023-03-17T00:41:23.700Z,9.27
2023-03-17T00:43:54.073Z,8.55
2023-03-17T00:46:27.936Z,7.65
2023-03-17T00:48:58.008Z,6.25
2023-03-17T00:51:27.799Z,8.18
2023-03-17T00:53:57.593Z,7.47
2023-03-17T00:56:29.888Z,6.38
2023-03-17T00:59:00.002Z,6.18
2023-03-17T01:01:30.082Z,5.93
2023-03-17T01:03:59.788Z,6.57
2023-03-17T01:06:29.519Z,7.05
2023-03-17T01:08:59.448Z,6.03
2023-03-17T01:11:32.017Z,7.53
2023-03-17T01:14:01.995Z,6.50
2023-03-17T01:16:32.128Z,6.78
2023-03-17T01:19:02.118Z,6.68
2023-03-17T01:21:31.889Z,6.13
2023-03-17T01:24:01.672Z,8.57
2023-03-17T01:26:34.038Z,9.00
2023-03-17T01:29:04.770Z,7.57
2023-03-17T01:31:34.846Z,8.25
2023-03-17T01:34:06.167Z,6.43
2023-03-17T01:36:37.561Z,7.85
2023-03-17T01:39:07.830Z,5.85
2023-03-17T01:41:40.454Z,7.30
2023-03-17T01:44:16.863Z,6.80
2023-03-17T01:46:47.526Z,7.57
2023-03-17T01:49:27.834Z,7.68
2023-03-17T01:52:07.610Z,5.43
2023-03-17T01:54:42.487Z,6.45
2023-03-17T01:57:21.352Z,7.82
2023-03-17T01:59:55.438Z,5.72
2023-03-17T02:02:28.648Z,5.97
2023-03-17T02:04:58.417Z,6.78
2023-03-17T02:07:29.491Z,5.50
2023-03-17T02:10:00.215Z,5.88
2023-03-17T02:12:33.042Z,6.20
2023-03-17T02:15:03.272Z,5.95
2023-03-17T02:17:33.391Z,5.03
2023-03-17T02:20:15.943Z,6.47
2023-03-17T02:22:52.548Z,7.75
2023-03-17T02:25:23.655Z,5.07
2023-03-17T02:27:59.434Z,6.88
2023-03-17T02:30:29.673Z,7.60
2023-03-17T02:32:59.726Z,6.30
2023-03-17T02:35:29.559Z,5.47
2023-03-17T02:38:02.018Z,5.28
2023-03-17T02:40:32.571Z,7.22
2023-03-17T02:43:02.639Z,8.68
2023-03-17T02:45:32.392Z,8.02
2023-03-17T02:48:04.072Z,7.28
2023-03-17T02:50:33.816Z,8.20
2023-03-17T02:53:07.642Z,5.72
2023-03-17T02:55:37.529Z,10.70
2023-03-17T02:58:07.414Z,9.65
2023-03-17T03:00:38.678Z,12.85
2023-03-17T03:03:08.480Z,9.93
2023-03-17T03:05:38.246Z,7.82
2023-03-17T03:08:10.860Z,9.50
2023-03-17T03:10:41.777Z,9.55
2023-03-17T03:13:11.645Z,8.07
2023-03-17T03:15:44.123Z,9.35
2023-03-17T03:18:13.901Z,11.25
2023-03-17T03:20:46.086Z,12.70
2023-03-17T03:23:18.986Z,9.93
2023-03-17T03:25:48.952Z,12.32
2023-03-17T03:28:19.199Z,9.40
2023-03-17T03:30:49.089Z,9.48
2023-03-17T03:33:19.964Z,8.98
2023-03-17T03:35:49.778Z,10.90
2023-03-17T03:38:22.105Z,8.80
2023-03-17T03:40:51.882Z,9.40
2023-03-17T03:43:23.950Z,11.55
2023-03-17T03:45:54.610Z,10.43
2023-03-17T03:48:25.217Z,8.93
2023-03-17T03:50:59.014Z,8.43
2023-03-17T03:53:32.222Z,12.02
2023-03-17T03:56:02.049Z,10.85
2023-03-17T03:58:31.790Z,10.60
2023-03-17T04:01:01.537Z,8.82
2023-03-17T04:03:31.678Z,13.90
2023-03-17T04:06:01.595Z,12.00
2023-03-17T04:08:34.271Z,11.05
2023-03-17T04:11:04.049Z,12.75
2023-03-17T04:13:33.815Z,9.40
2023-03-17T04:16:03.911Z,12.48
2023-03-17T04:18:33.835Z,8.73
2023-03-17T04:21:03.755Z,10.45
2023-03-17T04:23:36.349Z,8.98
2023-03-17T04:26:06.634Z,9.50
2023-03-17T04:28:36.383Z,10.45
2023-03-17T04:31:06.404Z,8.52
2023-03-17T04:33:36.244Z,8.60
2023-03-17T04:36:07.808Z,10.43
2023-03-17T04:38:40.371Z,10.45
2023-03-17T04:41:10.239Z,10.73
2023-03-17T04:43:40.059Z,9.70
2023-03-17T04:46:09.834Z,10.57
2023-03-17T04:48:39.635Z,12.15
2023-03-17T04:51:11.647Z,13.98
2023-03-17T04:53:44.879Z,9.35
2023-03-17T04:56:14.763Z,10.98
2023-03-17T04:58:44.857Z,11.82
2023-03-17T05:01:14.677Z,11.93
2023-03-17T05:03:45.421Z,9.80
2023-03-17T05:06:15.255Z,11.05
2023-03-17T05:08:47.779Z,9.27
2023-03-17T05:11:18.044Z,9.55
2023-03-17T05:13:48.378Z,8.82
2023-03-17T05:16:18.334Z,10.32
2023-03-17T05:18:48.511Z,10.50
2023-03-17T05:21:18.273Z,10.50
2023-03-17T05:23:50.998Z,11.73
2023-03-17T05:26:21.368Z,11.60
2023-03-17T05:28:51.231Z,9.57
2023-03-17T05:31:21.808Z,11.30
2023-03-17T05:33:51.590Z,13.82
2023-03-17T05:36:21.677Z,12.40
2023-03-17T05:38:54.026Z,12.07
2023-03-17T05:41:23.818Z,13.10
2023-03-17T05:43:53.710Z,10.55
2023-03-17T05:46:23.482Z,13.05
2023-03-17T05:48:53.268Z,9.23
2023-03-17T05:51:23.140Z,14.13
2023-03-17T05:53:56.046Z,8.95
2023-03-17T05:56:26.911Z,8.98
2023-03-17T05:59:05.465Z,11.73
2023-03-17T06:01:35.189Z,8.88
2023-03-17T06:04:05.005Z,8.50
2023-03-17T06:06:34.948Z,8.27
2023-03-17T06:09:07.332Z,11.65
2023-03-17T06:11:38.175Z,9.48
2023-03-17T06:14:08.159Z,11.00
2023-03-17T06:16:37.943Z,8.77
2023-03-17T06:19:07.698Z,10.20
2023-03-17T06:21:37.459Z,10.30
2023-03-17T06:24:11.503Z,9.02
2023-03-17T06:26:42.471Z,10.55
2023-03-17T06:29:12.667Z,13.15
2023-03-17T06:31:50.194Z,12.10
2023-03-17T06:34:20.013Z,8.93
2023-03-17T06:36:49.959Z,7.50
2023-03-17T06:39:22.259Z,9.90
2023-03-17T06:41:52.199Z,9.68
2023-03-17T06:44:22.081Z,8.02
2023-03-17T06:46:52.765Z,7.30
2023-03-17T06:49:22.529Z,8.30
2023-03-17T06:51:52.305Z,8.70
2023-03-17T06:54:25.486Z,10.35
2023-03-17T06:56:56.092Z,7.10
2023-03-17T06:59:26.482Z,7.63
2023-03-17T07:01:56.228Z,9.88
2023-03-17T07:04:25.979Z,7.32
2023-03-17T07:06:56.063Z,8.65
2023-03-17T07:09:28.627Z,7.60
2023-03-17T07:11:58.373Z,9.07
2023-03-17T07:14:28.380Z,5.57
2023-03-17T07:16:58.362Z,8.18
2023-03-17T07:19:28.083Z,8.80
2023-03-17T07:21:58.514Z,8.35
2023-03-17T07:24:31.423Z,8.95
2023-03-17T07:27:01.343Z,8.75
2023-03-17T07:29:32.437Z,9.35
2023-03-17T07:32:02.387Z,7.93
2023-03-17T07:34:32.451Z,8.55
2023-03-17T07:37:02.412Z,9.93
2023-03-17T07:39:34.900Z,8.40
2023-03-17T07:42:04.999Z,5.82
2023-03-17T07:44:34.706Z,7.97
2023-03-17T07:47:04.461Z,8.57
2023-03-17T07:49:41.366Z,9.63
2023-03-17T07:52:13.035Z,6.63
2023-03-17T07:54:45.431Z,12.57
2023-03-17T07:57:16.641Z,7.75
2023-03-17T07:59:47.233Z,6.35
2023-03-17T08:02:18.814Z,6.32
2023-03-17T08:04:48.724Z,7.25
2023-03-17T08:07:18.493Z,7.65
2023-03-17T08:09:51.148Z,10.95
2023-03-17T08:12:20.956Z,8.55
2023-03-17T08:14:51.062Z,11.15
2023-03-17T08:17:21.174Z,7.18
2023-03-17T08:19:51.359Z,11.43
2023-03-17T08:22:21.062Z,8.80
2023-03-17T08:24:53.819Z,10.00
2023-03-17T08:27:23.878Z,6.45
2023-03-17T08:29:53.763Z,7.82
2023-03-17T08:32:23.690Z,7.32
2023-03-17T08:34:56.405Z,7.68
2023-03-17T08:37:26.143Z,8.18
2023-03-17T08:39:59.036Z,8.95
2023-03-17T08:42:28.757Z,7.70
2023-03-17T08:44:58.464Z,7.50
2023-03-17T08:47:28.350Z,10.65
2023-03-17T08:50:00.212Z,10.93
2023-03-17T08:52:30.264Z,11.02
2023-03-17T08:55:02.598Z,12.95
2023-03-17T08:57:32.355Z,7.18
2023-03-17T09:00:02.237Z,9.20
2023-03-17T09:02:32.073Z,7.80
2023-03-17T09:05:02.596Z,9.02
2023-03-17T09:07:33.128Z,6.97
2023-03-17T09:10:07.148Z,9.65
2023-03-17T09:12:37.357Z,7.93
2023-03-17T09:15:07.904Z,8.02
2023-03-17T09:17:37.620Z,7.45
2023-03-17T09:20:09.270Z,7.22
2023-03-17T09:22:39.044Z,5.97
2023-03-17T09:25:12.412Z,6.53
2023-03-17T09:27:42.300Z,12.43
2023-03-17T09:30:13.927Z,9.52
2023-03-17T09:32:44.875Z,10.00
2023-03-17T09:35:15.208Z,6.28
2023-03-17T09:37:45.140Z,7.88
2023-03-17T09:40:21.297Z,6.78
2023-03-17T09:43:00.863Z,5.53
2023-03-17T09:45:34.703Z,7.53
2023-03-17T09:48:31.335Z,6.82
2023-03-17T09:51:04.963Z,5.82
2023-03-17T09:53:38.976Z,7.45
2023-03-17T09:56:16.310Z,4.88
2023-03-17T09:58:53.436Z,5.13
2023-03-17T10:01:24.704Z,4.78
2023-03-17T10:03:54.778Z,5.47
2023-03-17T10:06:37.623Z,11.25
2023-03-17T10:09:27.898Z,7.75
2023-03-17T10:12:07.428Z,4.55
2023-03-17T10:14:48.556Z,5.35
2023-03-17T10:17:22.354Z,5.05
2023-03-17T10:20:00.742Z,7.00
2023-03-17T10:22:35.140Z,7.88
2023-03-17T10:25:09.257Z,6.93
2023-03-17T10:27:43.462Z,4.88
2023-03-17T10:30:18.530Z,6.13
2023-03-17T10:32:48.634Z,5.53
2023-03-17T10:35:20.026Z,5.70
2023-03-17T10:37:53.408Z,8.45
2023-03-17T10:40:31.594Z,7.18
2023-03-17T10:43:08.650Z,5.40
2023-03-17T10:45:44.057Z,5.22
2023-03-17T10:48:21.010Z,8.32
2023-03-17T10:50:52.802Z,5.88
2023-03-17T10:53:28.343Z,4.05
2023-03-17T10:56:02.474Z,3.67
2023-03-17T10:58:43.044Z,4.32
2023-03-17T11:01:23.788Z,3.80
2023-03-17T11:03:53.662Z,5.30
2023-03-17T11:06:34.140Z,4.30
2023-03-17T11:09:12.508Z,7.70
2023-03-17T11:11:47.610Z,3.10
2023-03-17T11:14:22.328Z,5.57
2023-03-17T11:16:56.817Z,3.72
2023-03-17T11:19:34.514Z,6.78
2023-03-17T11:22:11.552Z,3.30
2023-03-17T11:24:57.105Z,3.20
2023-03-17T11:27:33.365Z,5.20
2023-03-17T11:30:19.491Z,5.72
2023-03-17T11:33:00.055Z,4.93
2023-03-17T11:35:44.925Z,5.07
2023-03-17T11:38:26.826Z,3.03
2023-03-17T11:41:27.154Z,4.60
2023-03-17T11:44:26.746Z,2.90
2023-03-17T11:47:05.177Z,5.65
2023-03-17T11:49:39.744Z,5.25
2023-03-17T11:52:19.717Z,3.40
2023-03-17T11:54:57.101Z,3.28
2023-03-17T11:57:33.820Z,2.85
2023-03-17T12:00:07.764Z,4.22
2023-03-17T12:02:47.579Z,3.58
2023-03-17T12:05:23.131Z,3.13
2023-03-17T12:07:55.788Z,4.88
2023-03-17T12:10:30.949Z,5.72
2023-03-17T12:13:05.097Z,4.63
2023-03-17T12:15:39.373Z,4.30
2023-03-17T12:20:50.755Z,4.20
2023-03-17T12:23:31.495Z,4.40
2023-03-17T12:26:06.163Z,3.58
2023-03-17T12:28:45.041Z,1.73
2023-03-17T12:31:18.714Z,2.80
2023-03-17T12:33:57.732Z,4.57
2023-03-17T12:36:28.170Z,3.80
2023-03-17T12:39:05.366Z,3.45
2023-03-17T12:42:01.667Z,6.53
2023-03-17T12:44:50.287Z,3.33
2023-03-17T12:47:38.255Z,2.85
2023-03-17T12:50:46.550Z,4.10
2023-03-17T12:53:29.639Z,5.45
2023-03-17T12:56:02.562Z,4.47
2023-03-17T12:58:36.469Z,5.28
2023-03-17T13:01:17.320Z,3.67
2023-03-17T13:04:03.416Z,2.45
2023-03-17T13:06:38.982Z,3.53
2023-03-17T13:09:36.426Z,8.55
2023-03-17T13:12:08.791Z,4.03
2023-03-17T13:14:44.776Z,2.47
2023-03-17T13:17:33.691Z,6.45
2023-03-17T13:20:16.296Z,2.78
2023-03-17T13:23:06.487Z,2.20
2023-03-17T13:25:53.382Z,5.40
2023-03-17T13:28:28.499Z,2.85
2023-03-17T13:31:10.829Z,2.08
2023-03-17T13:33:46.569Z,2.45
2023-03-17T13:36:34.635Z,3.63
2023-03-17T13:39:31.011Z,2.45
2023-03-17T13:42:32.269Z,2.70
2023-03-17T13:45:30.933Z,2.78
2023-03-17T13:48:30.082Z,4.20
2023-03-17T13:51:06.487Z,3.63
2023-03-17T13:53:40.238Z,3.08
2023-03-17T13:56:19.994Z,4.63
2023-03-17T13:59:07.901Z,1.63
2023-03-17T14:01:46.897Z,2.45
2023-03-17T14:04:25.026Z,2.10
2023-03-17T14:06:57.818Z,3.90
2023-03-17T14:09:38.030Z,2.47
2023-03-17T14:12:17.843Z,4.68
2023-03-17T14:14:53.482Z,3.17
2023-03-17T14:17:27.866Z,4.40
2023-03-17T14:20:08.466Z,2.15
2023-03-17T14:22:49.164Z,2.53
2023-03-17T14:25:21.064Z,5.97
2023-03-17T14:27:52.552Z,3.85
2023-03-17T14:30:27.517Z,3.33
2023-03-17T14:33:04.358Z,3.42
2023-03-17T14:35:35.342Z,2.88
2023-03-17T14:38:06.602Z,2.58
2023-03-17T14:40:37.031Z,3.67
2023-03-17T14:43:07.065Z,5.70
2023-03-17T14:45:52.100Z,3.95
2023-03-17T14:48:29.963Z,4.95
2023-03-17T14:51:05.714Z,3.90
2023-03-17T14:53:37.104Z,2.00
2023-03-17T14:56:07.006Z,2.85
2023-03-17T14:58:40.257Z,2.88
2023-03-17T15:01:19.533Z,4.43
2023-03-17T15:03:57.912Z,3.50
2023-03-17T15:06:29.906Z,2.20
2023-03-17T15:09:02.777Z,2.58
2023-03-17T15:11:40.672Z,2.83
2023-03-17T15:14:21.322Z,4.60
2023-03-17T15:16:55.321Z,5.65
2023-03-17T15:19:28.940Z,4.75
2023-03-17T15:22:00.480Z,3.28
2023-03-17T15:24:44.074Z,2.20
2023-03-17T15:27:18.442Z,3.15
2023-03-17T15:32:23.483Z,5.53
2023-03-17T15:35:01.174Z,6.32
2023-03-17T15:37:33.213Z,4.80
2023-03-17T15:40:05.585Z,11.38
2023-03-17T15:42:38.465Z,8.15
2023-03-17T15:45:09.556Z,4.72
2023-03-17T15:47:41.883Z,4.55
2023-03-17T15:50:18.872Z,7.15
2023-03-17T15:52:49.139Z,5.63
2023-03-17T15:55:22.516Z,2.92
2023-03-17T15:57:55.822Z,6.13
2023-03-17T16:00:29.100Z,3.73
2023-03-17T16:03:05.332Z,6.55
2023-03-17T16:05:38.331Z,6.05
2023-03-17T16:08:09.383Z,8.40
2023-03-17T16:10:39.095Z,4.97
2023-03-17T16:13:09.540Z,3.75
2023-03-17T16:15:41.590Z,5.20
2023-03-17T16:18:19.447Z,2.60
2023-03-17T16:20:52.002Z,5.95
2023-03-17T16:23:24.393Z,5.30
2023-03-17T16:25:59.310Z,6.20
2023-03-17T16:28:35.785Z,8.18
2023-03-17T16:31:17.485Z,5.00
2023-03-17T16:33:50.277Z,8.30
2023-03-17T16:36:21.828Z,11.30
2023-03-17T16:38:52.560Z,7.07
2023-03-17T16:41:24.491Z,11.55
2023-03-17T16:43:59.404Z,7.32
2023-03-17T16:46:32.668Z,12.50
2023-03-17T16:49:07.201Z,6.38
2023-03-17T16:51:36.967Z,6.25
2023-03-17T16:54:06.918Z,6.28
2023-03-17T16:56:36.747Z,6.72
2023-03-17T16:59:06.991Z,9.63
2023-03-17T17:01:37.564Z,9.77
2023-03-17T17:04:12.481Z,5.93
2023-03-17T17:06:42.188Z,8.07
2023-03-17T17:09:11.980Z,7.38
2023-03-17T17:11:41.929Z,7.10
2023-03-17T17:14:11.680Z,6.60
2023-03-17T17:16:42.454Z,9.20
2023-03-17T17:19:19.391Z,8.25
2023-03-17T17:21:49.140Z,8.93
2023-03-17T17:24:18.985Z,13.75
2023-03-17T17:26:48.782Z,6.28
2023-03-17T17:29:18.868Z,7.15
2023-03-17T17:31:48.676Z,7.03
2023-03-17T17:34:21.063Z,8.60
2023-03-17T17:36:50.882Z,7.55
2023-03-17T17:39:21.113Z,7.63
2023-03-17T17:41:51.167Z,6.50
2023-03-17T17:44:20.958Z,7.28
2023-03-17T17:46:50.990Z,5.90
2023-03-17T17:49:24.201Z,10.65
2023-03-17T17:51:53.979Z,8.85
2023-03-17T17:54:23.879Z,8.80
2023-03-17T17:56:53.612Z,7.63
2023-03-17T17:59:23.598Z,9.85
2023-03-17T18:01:53.393Z,8.32
2023-03-17T18:04:25.915Z,9.77
2023-03-17T18:06:55.693Z,11.30
2023-03-17T18:09:26.172Z,10.90
2023-03-17T18:11:56.017Z,5.40
2023-03-17T18:14:26.561Z,9.23
2023-03-17T18:16:56.350Z,6.47
2023-03-17T18:19:28.727Z,10.25
2023-03-17T18:21:58.422Z,6.13
2023-03-17T18:24:28.635Z,6.32
2023-03-17T18:26:58.405Z,5.60
2023-03-17T18:29:28.126Z,9.23
2023-03-17T18:31:58.070Z,9.60
2023-03-17T18:34:35.174Z,7.78
2023-03-17T18:37:07.558Z,8.32
2023-03-17T18:39:37.403Z,12.27
2023-03-17T18:42:07.794Z,10.77
2023-03-17T18:44:39.916Z,11.73
2023-03-17T18:47:10.530Z,10.57
2023-03-17T18:49:43.260Z,9.90
2023-03-17T18:52:16.079Z,9.15
2023-03-17T18:54:46.025Z,11.98
2023-03-17T18:57:16.424Z,18.83
2023-03-17T18:59:46.324Z,8.00
2023-03-17T19:02:16.036Z,11.20
2023-03-17T19:04:48.518Z,9.68
2023-03-17T19:07:18.663Z,12.23
2023-03-17T19:09:48.463Z,12.48
2023-03-17T19:12:18.691Z,10.27
2023-03-17T19:14:48.475Z,9.00
2023-03-17T19:17:18.242Z,11.25
2023-03-17T19:19:50.582Z,8.85
2023-03-17T19:22:20.514Z,7.88
2023-03-17T19:24:50.446Z,7.03
2023-03-17T19:27:20.692Z,6.78
2023-03-17T19:29:50.623Z,8.30
2023-03-17T19:32:20.785Z,5.60
2023-03-17T19:34:53.107Z,6.25
2023-03-17T19:37:22.888Z,6.38
2023-03-17T19:39:52.639Z,8.05
2023-03-17T19:42:22.626Z,5.88
2023-03-17T19:44:52.362Z,10.02
2023-03-17T19:47:22.090Z,8.68
2023-03-17T19:49:54.438Z,8.82
2023-03-17T19:52:24.214Z,13.65
2023-03-17T19:54:54.098Z,9.05
2023-03-17T19:57:23.886Z,11.02
2023-03-17T19:59:53.845Z,6.90
2023-03-17T20:02:23.592Z,11.05
2023-03-17T20:04:56.145Z,6.82
2023-03-17T20:07:26.026Z,13.63
2023-03-17T20:09:56.045Z,13.20
2023-03-17T20:12:26.319Z,12.57
2023-03-17T20:14:56.082Z,9.02
2023-03-17T20:17:26.088Z,11.95
2023-03-17T20:19:58.438Z,10.02
2023-03-17T20:22:28.226Z,9.82
2023-03-17T20:24:58.133Z,10.30
2023-03-17T20:27:27.979Z,16.90
2023-03-17T20:29:58.704Z,11.63
2023-03-17T20:32:29.908Z,12.38
2023-03-17T20:35:02.746Z,10.60
2023-03-17T20:37:32.628Z,10.85
2023-03-17T20:40:04.747Z,11.02
2023-03-17T20:42:34.614Z,12.82
2023-03-17T20:45:04.410Z,12.38
2023-03-17T20:47:34.762Z,9.90
2023-03-17T20:50:08.822Z,9.32
2023-03-17T20:52:39.869Z,11.32
2023-03-17T20:55:13.821Z,14.70
2023-03-17T20:57:45.333Z,8.85
2023-03-17T21:00:17.809Z,9.18
2023-03-17T21:02:49.994Z,7.03
2023-03-17T21:05:24.822Z,8.90
2023-03-17T21:07:56.630Z,6.95
2023-03-17T21:10:26.477Z,7.75
2023-03-17T21:12:56.250Z,7.63
2023-03-17T21:15:26.026Z,10.38
2023-03-17T21:17:56.016Z,7.97
2023-03-17T21:20:28.317Z,8.45
2023-03-17T21:22:58.067Z,7.95
2023-03-17T21:25:27.964Z,8.27
2023-03-17T21:27:57.793Z,10.38
2023-03-17T21:30:27.632Z,9.07
2023-03-17T21:32:57.435Z,8.13
2023-03-17T21:35:30.858Z,8.88
2023-03-17T21:38:01.489Z,6.75
2023-03-17T21:40:33.039Z,10.20
2023-03-17T21:43:03.754Z,8.48
2023-03-17T21:45:34.020Z,11.05
2023-03-17T21:48:03.740Z,8.43
2023-03-17T21:50:37.181Z,10.07
2023-03-17T21:53:07.411Z,9.93
2023-03-17T21:55:37.241Z,13.68
2023-03-17T21:58:08.169Z,14.65
2023-03-17T22:00:45.228Z,14.50
2023-03-17T22:03:15.557Z,11.23
2023-03-17T22:05:48.425Z,11.10
2023-03-17T22:08:18.370Z,12.23
2023-03-17T22:10:48.987Z,13.38
2023-03-17T22:13:18.800Z,14.40
2023-03-17T22:15:48.736Z,12.70
2023-03-17T22:18:18.624Z,10.60
2023-03-17T22:20:50.983Z,13.43
2023-03-17T22:23:20.740Z,11.02
2023-03-17T22:25:50.693Z,13.70
2023-03-17T22:28:20.776Z,13.75
2023-03-17T22:30:50.901Z,13.25
2023-03-17T22:33:20.791Z,12.00
2023-03-17T22:35:53.173Z,11.88
2023-03-17T22:38:24.840Z,10.85
2023-03-17T22:41:03.848Z,13.57
2023-03-17T22:43:33.775Z,13.27
2023-03-17T22:46:03.692Z,13.15
2023-03-17T22:48:36.053Z,8.50
2023-03-17T22:51:11.366Z,10.90
2023-03-17T22:53:42.627Z,12.50
2023-03-17T22:56:13.902Z,10.77
2023-03-17T22:58:43.675Z,9.75
2023-03-17T23:01:15.139Z,11.02
2023-03-17T23:03:46.064Z,10.88
2023-03-17T23:06:19.504Z,13.52
2023-03-17T23:08:50.160Z,10.77
2023-03-17T23:11:23.160Z,9.93
2023-03-17T23:13:54.202Z,10.35
2023-03-17T23:16:24.953Z,11.57
2023-03-17T23:18:54.767Z,10.55
2023-03-17T23:21:31.773Z,11.63
2023-03-17T23:24:02.287Z,8.77
2023-03-17T23:26:32.760Z,13.60
2023-03-17T23:29:02.548Z,9.68
2023-03-17T23:31:32.352Z,11.00
2023-03-17T23:34:02.167Z,7.93
2023-03-17T23:36:35.081Z,12.35
2023-03-17T23:39:05.090Z,13.18
2023-03-17T23:41:35.618Z,8.55
2023-03-17T23:44:05.514Z,11.15
2023-03-17T23:46:35.334Z,11.13
2023-03-17T23:49:06.108Z,9.82
2023-03-17T23:51:39.146Z,11.10
2023-03-17T23:54:10.169Z,9.27
2023-03-17T23:56:40.952Z,11.45
2023-03-17T23:59:11.683Z,11.07
